createdAt,value
2019-05-01T00:02:41.055Z,8.46
2019-05-01T00:05:22.364Z,8.47
2019-05-01T00:07:52.486Z,8.38
2019-05-01T00:10:22.841Z,8.38
2019-05-01T00:12:52.937Z,8.36
2019-05-01T00:15:25.189Z,8.33
2019-05-01T00:17:55.244Z,8.30
2019-05-01T00:20:25.350Z,8.37
2019-05-01T00:22:55.423Z,8.39
2019-05-01T00:25:25.482Z,8.38
2019-05-01T00:27:55.553Z,8.35
2019-05-01T00:30:30.207Z,8.38
2019-05-01T00:32:58.625Z,8.32
2019-05-01T00:35:28.790Z,8.33
2019-05-01T00:37:58.902Z,8.35
2019-05-01T00:40:29.015Z,8.32
2019-05-01T00:42:59.244Z,8.26
2019-05-01T00:45:29.348Z,8.26
2019-05-01T00:47:59.476Z,8.21
2019-05-01T00:50:29.556Z,8.19
2019-05-01T00:52:59.621Z,8.20
2019-05-01T00:55:57.829Z,8.17
2019-05-01T00:58:42.781Z,8.15
2019-05-01T01:01:37.682Z,8.16
2019-05-01T01:04:08.431Z,8.13
2019-05-01T01:06:38.676Z,8.18
2019-05-01T01:09:09.423Z,8.21
2019-05-01T01:11:39.539Z,8.17
2019-05-01T01:14:09.587Z,8.21
2019-05-01T01:16:39.661Z,8.21
2019-05-01T01:19:09.720Z,8.25
2019-05-01T01:21:39.823Z,8.30
2019-05-01T01:24:09.975Z,8.22
2019-05-01T01:26:40.077Z,8.29
2019-05-01T01:29:10.252Z,8.22
2019-05-01T01:31:40.381Z,8.18
2019-05-01T01:34:10.467Z,8.20
2019-05-01T01:36:40.545Z,8.19
2019-05-01T01:39:10.650Z,8.15
2019-05-01T01:41:41.244Z,8.13
2019-05-01T01:44:27.494Z,8.18
2019-05-01T01:46:57.915Z,8.13
2019-05-01T01:49:28.014Z,8.18
2019-05-01T01:51:58.129Z,8.20
2019-05-01T01:54:31.333Z,8.21
2019-05-01T01:57:01.517Z,8.19
2019-05-01T01:59:31.908Z,8.12
2019-05-01T02:02:21.443Z,8.12
2019-05-01T02:05:13.915Z,8.11
2019-05-01T02:07:44.344Z,8.08
2019-05-01T02:10:16.267Z,8.09
2019-05-01T02:12:46.491Z,8.05
2019-05-01T02:15:16.595Z,8.10
2019-05-01T02:17:46.781Z,8.16
2019-05-01T02:20:17.097Z,8.11
2019-05-01T02:22:47.213Z,8.12
2019-05-01T02:25:17.386Z,8.05
2019-05-01T02:28:09.616Z,8.13
2019-05-01T02:30:41.826Z,8.06
2019-05-01T02:33:14.765Z,8.09
2019-05-01T02:35:45.397Z,8.06
2019-05-01T02:38:17.244Z,8.01
2019-05-01T02:40:54.326Z,8.03
2019-05-01T02:43:27.268Z,8.00
2019-05-01T02:46:00.700Z,8.03
2019-05-01T02:48:34.949Z,7.99
2019-05-01T02:51:06.532Z,8.00
2019-05-01T02:53:39.786Z,8.05
2019-05-01T02:56:29.671Z,8.00
2019-05-01T02:59:00.843Z,8.06
2019-05-01T03:01:45.659Z,8.07
2019-05-01T03:04:04.118Z,8.08
2019-05-01T03:06:34.783Z,8.06
2019-05-01T03:09:08.484Z,8.08
2019-05-01T03:11:41.245Z,8.13
2019-05-01T03:14:15.790Z,8.15
2019-05-01T03:16:48.669Z,8.12
2019-05-01T03:19:43.879Z,8.09
2019-05-01T03:22:39.255Z,8.09
2019-05-01T03:25:09.468Z,8.09
2019-05-01T03:27:41.528Z,8.13
2019-05-01T03:30:11.713Z,8.12
2019-05-01T03:32:42.381Z,8.08
2019-05-01T03:35:12.487Z,8.12
2019-05-01T03:37:42.801Z,8.16
2019-05-01T03:40:14.392Z,8.16
2019-05-01T03:42:44.777Z,8.18
2019-05-01T03:45:14.923Z,8.21
2019-05-01T03:47:45.076Z,8.20
2019-05-01T03:50:15.156Z,8.20
2019-05-01T03:52:45.599Z,8.21
2019-05-01T03:55:16.022Z,8.13
2019-05-01T03:57:46.576Z,8.20
2019-05-01T04:00:25.308Z,8.22
2019-05-01T04:03:20.231Z,8.20
2019-05-01T04:05:50.864Z,8.23
2019-05-01T04:08:21.441Z,8.20
2019-05-01T04:10:51.592Z,8.18
2019-05-01T04:13:21.668Z,8.22
2019-05-01T04:15:53.556Z,8.16
2019-05-01T04:18:24.562Z,8.20
2019-05-01T04:20:56.186Z,8.15
2019-05-01T04:23:26.625Z,8.18
2019-05-01T04:25:56.918Z,8.20
2019-05-01T04:28:39.782Z,8.21
2019-05-01T04:31:27.137Z,8.26
2019-05-01T04:33:59.515Z,8.22
2019-05-01T04:36:34.665Z,8.21
2019-05-01T04:39:06.758Z,8.22
2019-05-01T04:41:37.146Z,8.27
2019-05-01T04:44:07.304Z,8.28
2019-05-01T04:46:37.808Z,8.27
2019-05-01T04:49:07.886Z,8.29
2019-05-01T04:51:38.289Z,8.28
2019-05-01T04:54:08.350Z,8.28
2019-05-01T04:56:38.738Z,8.35
2019-05-01T04:59:09.020Z,8.33
2019-05-01T05:01:57.633Z,8.24
2019-05-01T05:04:28.034Z,8.36
2019-05-01T05:06:58.091Z,8.33
2019-05-01T05:09:47.719Z,8.37
2019-05-01T05:12:40.668Z,8.38
2019-05-01T05:15:28.858Z,8.40
2019-05-01T05:17:59.262Z,8.38
2019-05-01T05:20:29.346Z,8.42
2019-05-01T05:22:59.915Z,8.35
2019-05-01T05:25:30.688Z,8.35
2019-05-01T05:28:01.211Z,8.33
2019-05-01T05:30:34.787Z,8.33
2019-05-01T05:33:18.189Z,8.41
2019-05-01T05:35:41.950Z,8.35
2019-05-01T05:38:26.476Z,8.44
2019-05-01T05:41:00.352Z,8.48
2019-05-01T05:43:30.088Z,8.47
2019-05-01T05:46:00.769Z,8.50
2019-05-01T05:48:31.320Z,8.50
2019-05-01T05:51:11.082Z,8.53
2019-05-01T05:53:44.660Z,8.55
2019-05-01T05:56:21.904Z,8.55
2019-05-01T05:58:57.935Z,8.66
2019-05-01T06:01:48.496Z,8.74
2019-05-01T06:04:39.478Z,8.75
2019-05-01T06:07:23.243Z,8.70
2019-05-01T06:10:18.579Z,8.78
2019-05-01T06:13:08.302Z,8.74
2019-05-01T06:15:54.365Z,8.73
2019-05-01T06:18:30.143Z,8.77
2019-05-01T06:21:16.023Z,8.84
2019-05-01T06:24:06.295Z,8.89
2019-05-01T06:26:37.585Z,8.99
2019-05-01T06:29:05.783Z,8.97
2019-05-01T06:31:37.375Z,8.90
2019-05-01T06:34:07.435Z,8.89
2019-05-01T06:36:39.028Z,8.86
2019-05-01T06:39:11.774Z,8.86
2019-05-01T06:41:49.450Z,8.87
2019-05-01T06:44:44.979Z,8.84
2019-05-01T06:47:43.167Z,8.79
2019-05-01T06:50:28.405Z,8.85
2019-05-01T06:52:59.785Z,8.79
2019-05-01T06:55:31.464Z,8.81
2019-05-01T06:58:01.665Z,8.74
2019-05-01T07:00:32.364Z,8.85
2019-05-01T07:03:05.975Z,8.89
2019-05-01T07:05:35.195Z,8.90
2019-05-01T07:08:05.292Z,9.00
2019-05-01T07:10:43.594Z,8.97
2019-05-01T07:13:07.875Z,8.88
2019-05-01T07:15:37.979Z,8.92
2019-05-01T07:18:08.054Z,8.91
2019-05-01T07:20:56.298Z,8.79
2019-05-01T07:23:27.112Z,8.81
2019-05-01T07:25:57.437Z,8.90
2019-05-01T07:28:34.122Z,8.92
2019-05-01T07:31:07.339Z,8.99
2019-05-01T07:33:37.694Z,9.02
2019-05-01T07:36:14.851Z,8.95
2019-05-01T07:38:41.731Z,9.15
2019-05-01T07:41:12.525Z,9.25
2019-05-01T07:44:11.150Z,9.31
2019-05-01T07:47:06.353Z,9.40
2019-05-01T07:49:56.100Z,9.22
2019-05-01T07:52:26.897Z,9.29
2019-05-01T07:54:57.760Z,9.23
2019-05-01T07:57:28.555Z,8.99
2019-05-01T08:00:08.640Z,9.02
2019-05-01T08:02:39.225Z,8.95
2019-05-01T08:05:13.500Z,9.01
2019-05-01T08:07:44.502Z,9.07
2019-05-01T08:10:14.876Z,9.01
2019-05-01T08:12:45.281Z,9.19
2019-05-01T08:15:17.793Z,9.18
2019-05-01T08:18:05.595Z,9.31
2019-05-01T08:20:45.745Z,9.06
2019-05-01T08:23:16.167Z,9.05
2019-05-01T08:25:46.218Z,9.13
2019-05-01T08:28:27.699Z,9.15
2019-05-01T08:31:13.320Z,9.17
2019-05-01T08:34:00.340Z,8.95
2019-05-01T08:36:30.437Z,9.06
2019-05-01T08:39:00.556Z,9.15
2019-05-01T08:41:32.012Z,8.97
2019-05-01T08:44:02.753Z,8.78
2019-05-01T08:46:52.183Z,8.82
2019-05-01T08:49:35.194Z,8.97
2019-05-01T08:52:12.583Z,9.32
2019-05-01T08:54:37.279Z,9.08
2019-05-01T08:57:08.022Z,9.02
2019-05-01T08:59:38.412Z,9.12
2019-05-01T09:02:09.847Z,8.97
2019-05-01T09:04:40.086Z,9.03
2019-05-01T09:07:10.215Z,9.07
2019-05-01T09:09:45.466Z,9.03
2019-05-01T09:12:13.576Z,9.09
2019-05-01T09:14:43.782Z,9.14
2019-05-01T09:17:13.877Z,9.08
2019-05-01T09:19:43.950Z,9.00
2019-05-01T09:22:14.084Z,9.09
2019-05-01T09:24:45.152Z,9.21
2019-05-01T09:27:40.633Z,9.14
2019-05-01T09:30:21.810Z,9.19
2019-05-01T09:32:54.096Z,9.29
2019-05-01T09:35:23.173Z,9.13
2019-05-01T09:37:53.584Z,9.31
2019-05-01T09:40:24.301Z,9.22
2019-05-01T09:42:58.971Z,9.25
2019-05-01T09:45:26.797Z,9.25
2019-05-01T09:47:57.007Z,9.25
2019-05-01T09:50:30.518Z,9.08
2019-05-01T09:53:24.026Z,9.14
2019-05-01T09:56:19.343Z,9.14
2019-05-01T09:58:49.631Z,9.33
2019-05-01T10:01:24.076Z,9.53
2019-05-01T10:03:54.537Z,9.75
2019-05-01T10:06:23.496Z,9.83
2019-05-01T10:08:53.636Z,9.92
2019-05-01T10:11:23.735Z,9.87
2019-05-01T10:13:59.701Z,9.80
2019-05-01T10:16:31.974Z,9.68
2019-05-01T10:19:03.916Z,9.51
2019-05-01T10:21:34.002Z,9.31
2019-05-01T10:24:04.732Z,9.38
2019-05-01T10:26:36.643Z,9.44
2019-05-01T10:29:25.863Z,9.44
2019-05-01T10:32:01.227Z,9.52
2019-05-01T10:34:42.919Z,9.47
2019-05-01T10:37:12.272Z,9.44
2019-05-01T10:39:42.450Z,9.49
2019-05-01T10:42:12.800Z,9.71
2019-05-01T10:44:44.456Z,9.68
2019-05-01T10:47:14.507Z,9.77
2019-05-01T10:49:47.677Z,9.66
2019-05-01T10:52:17.760Z,9.77
2019-05-01T10:54:47.901Z,9.54
2019-05-01T10:57:18.023Z,9.68
2019-05-01T10:59:48.161Z,9.77
2019-05-01T11:02:19.093Z,10.11
2019-05-01T11:04:50.922Z,10.16
2019-05-01T11:07:21.052Z,10.11
2019-05-01T11:09:51.175Z,10.23
2019-05-01T11:12:21.328Z,10.03
2019-05-01T11:14:51.491Z,9.96
2019-05-01T11:17:21.659Z,9.79
2019-05-01T11:19:51.940Z,9.85
2019-05-01T11:22:22.089Z,9.89
2019-05-01T11:24:52.166Z,10.28
2019-05-01T11:27:22.334Z,9.95
2019-05-01T11:29:52.436Z,10.29
2019-05-01T11:32:32.136Z,10.49
2019-05-01T11:35:21.202Z,9.96
2019-05-01T11:38:01.307Z,9.80
2019-05-01T11:40:35.145Z,9.86
2019-05-01T11:43:05.320Z,10.02
2019-05-01T11:45:35.461Z,9.88
2019-05-01T11:48:05.676Z,9.91
2019-05-01T11:50:35.791Z,9.82
2019-05-01T11:53:06.194Z,10.06
2019-05-01T11:55:36.332Z,9.88
2019-05-01T11:58:06.415Z,9.87
2019-05-01T12:00:36.531Z,10.06
2019-05-01T12:03:06.621Z,9.97
2019-05-01T12:05:36.723Z,9.93
2019-05-01T12:08:06.828Z,9.86
2019-05-01T12:10:36.929Z,9.62
2019-05-01T12:13:07.225Z,9.56
2019-05-01T12:15:37.362Z,9.53
2019-05-01T12:18:07.514Z,9.76
2019-05-01T12:20:37.621Z,9.82
2019-05-01T12:23:07.725Z,9.54
2019-05-01T12:25:37.958Z,10.00
2019-05-01T12:28:08.102Z,10.17
2019-05-01T12:30:38.242Z,10.29
2019-05-01T12:33:08.373Z,10.10
2019-05-01T12:35:38.486Z,10.14
2019-05-01T12:38:08.577Z,10.15
2019-05-01T12:40:38.750Z,10.29
2019-05-01T12:43:08.868Z,10.54
2019-05-01T12:45:38.959Z,10.37
2019-05-01T12:48:09.097Z,10.36
2019-05-01T12:50:39.216Z,10.22
2019-05-01T12:53:23.554Z,10.20
2019-05-01T12:56:15.788Z,10.28
2019-05-01T12:58:47.094Z,10.53
2019-05-01T13:01:17.238Z,10.87
2019-05-01T13:03:47.374Z,10.67
2019-05-01T13:06:17.928Z,10.44
2019-05-01T13:08:48.091Z,10.54
2019-05-01T13:11:18.265Z,10.70
2019-05-01T13:13:48.468Z,11.10
2019-05-01T13:16:18.584Z,11.18
2019-05-01T13:18:54.966Z,11.21
2019-05-01T13:21:25.189Z,11.58
2019-05-01T13:23:55.290Z,11.38
2019-05-01T13:26:34.680Z,11.14
2019-05-01T13:29:23.437Z,11.44
2019-05-01T13:32:01.086Z,11.65
2019-05-01T13:34:31.236Z,11.45
2019-05-01T13:37:03.115Z,11.75
2019-05-01T13:39:33.556Z,11.39
2019-05-01T13:42:03.651Z,11.18
2019-05-01T13:44:34.083Z,11.20
2019-05-01T13:47:04.549Z,11.29
2019-05-01T13:49:36.154Z,11.07
2019-05-01T13:52:06.440Z,10.71
2019-05-01T13:54:36.894Z,10.70
2019-05-01T13:57:07.043Z,10.73
2019-05-01T13:59:37.232Z,10.96
2019-05-01T14:02:07.496Z,10.90
2019-05-01T14:04:37.785Z,10.90
2019-05-01T14:07:16.284Z,11.12
2019-05-01T14:09:40.435Z,10.86
2019-05-01T14:12:10.668Z,10.51
2019-05-01T14:14:40.838Z,10.40
2019-05-01T14:17:11.221Z,10.56
2019-05-01T14:19:44.190Z,10.71
2019-05-01T14:22:42.631Z,10.73
2019-05-01T14:25:13.157Z,10.78
2019-05-01T14:27:43.762Z,10.73
2019-05-01T14:30:14.166Z,10.72
2019-05-01T14:32:44.572Z,10.71
2019-05-01T14:35:16.492Z,10.83
2019-05-01T14:37:46.618Z,10.83
2019-05-01T14:40:16.834Z,10.76
2019-05-01T14:42:47.116Z,10.76
2019-05-01T14:45:17.558Z,10.89
2019-05-01T14:47:47.870Z,10.93
2019-05-01T14:50:18.121Z,10.82
2019-05-01T14:52:51.293Z,10.97
2019-05-01T14:55:21.381Z,10.97
2019-05-01T14:57:51.638Z,10.62
2019-05-01T15:00:22.009Z,10.61
2019-05-01T15:02:52.211Z,10.56
2019-05-01T15:05:22.340Z,10.58
2019-05-01T15:07:52.477Z,10.60
2019-05-01T15:10:22.589Z,10.64
2019-05-01T15:12:54.560Z,10.69
2019-05-01T15:15:47.576Z,10.53
2019-05-01T15:18:33.457Z,10.24
2019-05-01T15:21:03.707Z,9.95
2019-05-01T15:23:33.938Z,10.20
2019-05-01T15:26:04.056Z,10.39
2019-05-01T15:28:34.160Z,10.38
2019-05-01T15:31:04.278Z,10.08
2019-05-01T15:33:34.452Z,9.97
2019-05-01T15:36:04.671Z,9.95
2019-05-01T15:38:34.820Z,9.95
2019-05-01T15:41:16.518Z,9.79
2019-05-01T15:44:08.348Z,9.82
2019-05-01T15:46:40.086Z,9.79
2019-05-01T15:49:10.346Z,9.57
2019-05-01T15:51:40.616Z,9.66
2019-05-01T15:54:10.769Z,9.60
2019-05-01T15:56:41.029Z,9.63
2019-05-01T15:59:11.300Z,9.67
2019-05-01T16:01:41.652Z,9.53
2019-05-01T16:04:11.873Z,9.45
2019-05-01T16:06:42.021Z,9.39
2019-05-01T16:09:12.514Z,9.31
2019-05-01T16:12:04.503Z,9.18
2019-05-01T16:14:34.634Z,9.16
2019-05-01T16:17:04.839Z,9.17
2019-05-01T16:19:35.081Z,9.12
2019-05-01T16:22:05.997Z,9.13
2019-05-01T16:24:36.155Z,9.12
2019-05-01T16:27:06.976Z,9.08
2019-05-01T16:29:37.127Z,9.07
2019-05-01T16:32:07.436Z,9.05
2019-05-01T16:34:37.553Z,9.04
2019-05-01T16:37:07.697Z,9.03
2019-05-01T16:40:02.441Z,8.98
2019-05-01T16:42:35.046Z,8.87
2019-05-01T16:45:06.788Z,8.90
2019-05-01T16:47:37.195Z,8.88
2019-05-01T16:50:08.895Z,8.85
2019-05-01T16:52:39.610Z,8.78
2019-05-01T16:55:10.429Z,8.77
2019-05-01T16:57:40.612Z,8.77
2019-05-01T17:00:13.127Z,8.66
2019-05-01T17:03:01.241Z,8.62
2019-05-01T17:05:59.546Z,8.68
2019-05-01T17:08:42.121Z,8.63
2019-05-01T17:11:12.804Z,8.49
2019-05-01T17:13:42.934Z,8.43
2019-05-01T17:16:13.327Z,8.47
2019-05-01T17:18:43.591Z,8.45
2019-05-01T17:21:13.760Z,8.39
2019-05-01T17:23:43.956Z,8.45
2019-05-01T17:26:14.190Z,8.45
2019-05-01T17:28:46.466Z,8.35
2019-05-01T17:31:16.676Z,8.27
2019-05-01T17:33:50.854Z,8.30
2019-05-01T17:36:18.936Z,8.29
2019-05-01T17:38:50.094Z,8.21
2019-05-01T17:41:22.715Z,8.17
2019-05-01T17:43:52.212Z,8.15
2019-05-01T17:46:22.846Z,8.16
2019-05-01T17:48:53.267Z,8.15
2019-05-01T17:51:24.287Z,8.14
2019-05-01T17:53:55.108Z,8.16
2019-05-01T17:56:28.331Z,8.15
2019-05-01T17:58:57.619Z,8.10
2019-05-01T18:01:47.453Z,8.07
2019-05-01T18:04:26.512Z,8.08
2019-05-01T18:06:56.942Z,8.13
2019-05-01T18:09:27.151Z,8.07
2019-05-01T18:11:57.330Z,8.07
2019-05-01T18:14:27.879Z,8.03
2019-05-01T18:16:58.173Z,8.06
2019-05-01T18:19:28.552Z,8.09
2019-05-01T18:22:12.188Z,8.04
2019-05-01T18:25:10.567Z,8.04
2019-05-01T18:27:58.944Z,7.97
2019-05-01T18:30:40.678Z,7.96
2019-05-01T18:33:10.996Z,7.93
2019-05-01T18:35:44.917Z,7.93
2019-05-01T18:38:35.334Z,7.93
2019-05-01T18:41:21.081Z,7.92
2019-05-01T18:43:51.449Z,7.89
2019-05-01T18:46:22.071Z,7.90
2019-05-01T18:48:52.352Z,7.90
2019-05-01T18:51:22.860Z,7.90
2019-05-01T18:53:57.378Z,7.81
2019-05-01T18:56:25.469Z,7.79
2019-05-01T18:58:56.316Z,7.72
2019-05-01T19:01:26.670Z,7.80
2019-05-01T19:04:00.129Z,7.80
2019-05-01T19:06:41.010Z,7.78
2019-05-01T19:09:14.263Z,7.77
2019-05-01T19:11:35.408Z,7.79
2019-05-01T19:14:06.435Z,7.75
2019-05-01T19:16:39.877Z,7.74
2019-05-01T19:19:11.020Z,7.77
2019-05-01T19:21:48.008Z,7.78
2019-05-01T19:24:18.626Z,7.75
2019-05-01T19:26:51.523Z,7.74
2019-05-01T19:29:21.859Z,7.76
2019-05-01T19:31:52.274Z,7.73
2019-05-01T19:34:24.087Z,7.73
2019-05-01T19:36:54.847Z,7.75
2019-05-01T19:39:27.080Z,7.74
2019-05-01T19:41:58.144Z,7.69
2019-05-01T19:44:29.364Z,7.75
2019-05-01T19:47:00.373Z,7.64
2019-05-01T19:49:31.115Z,7.66
2019-05-01T19:52:02.880Z,7.72
2019-05-01T19:54:33.778Z,7.71
2019-05-01T19:57:04.463Z,7.73
2019-05-01T19:59:34.789Z,7.69
2019-05-01T20:02:06.600Z,7.66
2019-05-01T20:04:37.424Z,7.67
2019-05-01T20:07:15.826Z,7.67
2019-05-01T20:09:56.708Z,7.66
2019-05-01T20:12:20.540Z,7.63
2019-05-01T20:14:50.948Z,7.66
2019-05-01T20:17:21.440Z,7.65
2019-05-01T20:19:51.848Z,7.61
2019-05-01T20:22:24.091Z,7.60
2019-05-01T20:24:59.079Z,7.59
2019-05-01T20:27:29.348Z,7.54
2019-05-01T20:30:01.005Z,7.51
2019-05-01T20:32:31.376Z,7.54
2019-05-01T20:35:02.065Z,7.50
2019-05-01T20:37:32.387Z,7.52
2019-05-01T20:40:11.335Z,7.51
2019-05-01T20:42:36.523Z,7.49
2019-05-01T20:45:13.030Z,7.52
2019-05-01T20:47:45.121Z,7.50
2019-05-01T20:50:15.375Z,7.44
2019-05-01T20:52:45.762Z,7.41
2019-05-01T20:55:15.998Z,7.38
2019-05-01T20:57:47.243Z,7.43
2019-05-01T21:00:18.614Z,7.40
2019-05-01T21:02:48.829Z,7.43
2019-05-01T21:05:27.325Z,7.36
2019-05-01T21:08:19.389Z,7.41
2019-05-01T21:10:54.024Z,7.37
2019-05-01T21:13:25.137Z,7.37
2019-05-01T21:15:56.309Z,7.40
2019-05-01T21:18:27.795Z,7.37
2019-05-01T21:20:57.911Z,7.36
2019-05-01T21:23:28.083Z,7.38
2019-05-01T21:25:58.403Z,7.35
2019-05-01T21:28:28.542Z,7.32
2019-05-01T21:30:58.638Z,7.31
2019-05-01T21:33:28.887Z,7.34
2019-05-01T21:35:59.537Z,7.35
2019-05-01T21:38:30.802Z,7.34
2019-05-01T21:41:02.731Z,7.32
2019-05-01T21:43:36.914Z,7.30
2019-05-01T21:46:04.660Z,7.29
2019-05-01T21:48:34.753Z,7.31
2019-05-01T21:51:07.285Z,7.27
2019-05-01T21:53:37.401Z,7.18
2019-05-01T21:56:08.481Z,7.18
2019-05-01T21:58:38.551Z,7.21
2019-05-01T22:01:08.797Z,7.26
2019-05-01T22:03:38.892Z,7.17
2019-05-01T22:06:11.229Z,7.17
2019-05-01T22:08:41.171Z,7.17
2019-05-01T22:11:11.242Z,7.20
2019-05-01T22:13:41.521Z,7.17
2019-05-01T22:16:22.022Z,7.20
2019-05-01T22:19:07.715Z,7.20
2019-05-01T22:21:54.929Z,7.17
2019-05-01T22:24:42.847Z,7.18
2019-05-01T22:27:20.492Z,7.23
2019-05-01T22:30:00.206Z,7.20
2019-05-01T22:32:34.537Z,7.19
2019-05-01T22:35:14.513Z,7.19
2019-05-01T22:37:44.552Z,7.17
2019-05-01T22:40:17.273Z,7.18
2019-05-01T22:42:47.349Z,7.20
2019-05-01T22:45:21.669Z,7.16
2019-05-01T22:47:52.078Z,7.16
2019-05-01T22:50:29.865Z,7.18
2019-05-01T22:52:59.927Z,7.18
2019-05-01T22:55:30.013Z,7.21
2019-05-01T22:58:00.063Z,7.17
2019-05-01T23:00:50.101Z,7.20
2019-05-01T23:03:24.423Z,7.19
2019-05-01T23:05:54.508Z,7.19
2019-05-01T23:08:25.278Z,7.14
2019-05-01T23:10:55.437Z,7.13
2019-05-01T23:13:25.714Z,7.14
2019-05-01T23:15:56.587Z,7.17
2019-05-01T23:18:27.756Z,7.15
2019-05-01T23:20:57.844Z,7.12
2019-05-01T23:23:28.387Z,7.15
2019-05-01T23:25:58.483Z,7.06
2019-05-01T23:28:28.596Z,7.06
2019-05-01T23:30:58.792Z,7.06
2019-05-01T23:33:28.945Z,7.06
2019-05-01T23:35:58.985Z,7.06
2019-05-01T23:38:29.133Z,7.05
2019-05-01T23:40:59.218Z,7.05
2019-05-01T23:43:29.279Z,7.04
2019-05-01T23:45:59.355Z,7.03
2019-05-01T23:48:29.446Z,7.02
2019-05-01T23:50:59.538Z,7.00
2019-05-01T23:53:29.603Z,7.04
2019-05-01T23:56:01.685Z,7.01
2019-05-01T23:58:31.533Z,7.02
